Time;durP1;ratioP1;P1;durP2;ratioP2;P2;SDS_P1;SDS_P2;PMS_P1;PMS_P2;Temp;Humidity;BMP_temperature;BMP_pressure;BME280_temperature;BME280_humidity;BME280_pressure;Samples;Min_cycle;Max_cycle;Signal;HPM_P1;HPM_P2
2023/04/09 00:00:34;;;;;;;;;;;;;;;12.30;41.08;101720.50;4968044;27;122512;-66
2023/04/09 00:03:00;;;;;;;;;;;;;;;12.29;41.10;101716.16;4967822;27;98995;-67
2023/04/09 00:05:26;;;;;;;;;;;;;;;12.26;41.15;101717.47;4968838;27;126892;-65
2023/04/09 00:07:52;;;;;;;;;;;;;;;12.25;41.25;101723.13;4969427;27;97927;-65
2023/04/09 00:10:17;;;;;;;;;;;;;;;12.23;41.20;101717.16;4954176;28;123858;-65
2023/04/09 00:12:43;;;;;;;;;;;;;;;12.21;41.03;101716.56;4971376;27;127770;-65
2023/04/09 00:15:09;;;;;;;;;;;;;;;12.19;41.31;101722.25;4971933;27;118828;-67
2023/04/09 00:17:35;;;;;;;;;;;;;;;12.17;41.17;101721.66;4954513;28;98078;-65
2023/04/09 00:20:02;;;;;;;;;;;;;;;12.15;41.21;101723.81;4973803;27;97787;-67
2023/04/09 00:22:28;;;;;;;;;;;;;;;12.13;41.13;101719.69;4969267;27;99500;-67
2023/04/09 00:24:54;;;;;;;;;;;;;;;12.10;41.12;101721.00;4969639;27;106588;-65
2023/04/09 00:27:20;;;;;;;;;;;;;;;12.09;41.21;101722.06;4971579;27;127522;-65
2023/04/09 00:29:46;;;;;;;;;;;;;;;12.08;41.16;101723.16;4972074;27;122697;-65
2023/04/09 00:32:12;;;;;;;;;;;;;;;12.06;41.25;101721.75;4969143;27;98690;-65
2023/04/09 00:34:38;;;;;;;;;;;;;;;12.05;41.13;101729.03;4971594;27;129337;-66
2023/04/09 00:37:04;;;;;;;;;;;;;;;12.04;41.11;101730.13;4969423;27;128178;-67
2023/04/09 00:39:30;;;;;;;;;;;;;;;12.01;41.22;101733.31;4966460;27;117301;-67
2023/04/09 00:41:57;;;;;;;;;;;;;;;11.99;41.13;101738.16;4971761;27;127925;-65
2023/04/09 00:44:24;;;;;;;;;;;;;;;11.98;41.12;101744.59;4969185;27;99093;-65
2023/04/09 00:46:50;;;;;;;;;;;;;;;11.96;41.29;101730.53;4971283;27;98145;-65
2023/04/09 00:49:16;;;;;;;;;;;;;;;11.93;41.23;101726.41;4956692;28;98338;-65
2023/04/09 00:51:44;;;;;;;;;;;;;;;11.93;41.10;101725.59;4971545;27;98997;-67
2023/04/09 00:54:10;;;;;;;;;;;;;;;11.91;41.05;101720.47;4955592;27;99015;-65
2023/04/09 00:56:37;;;;;;;;;;;;;;;11.89;41.15;101719.88;4955093;28;124657;-65
2023/04/09 00:59:03;;;;;;;;;;;;;;;11.88;41.14;101715.53;4969588;27;121513;-65
2023/04/09 01:01:29;;;;;;;;;;;;;;;11.87;41.21;101713.06;4970482;27;98359;-67
2023/04/09 01:03:55;;;;;;;;;;;;;;;11.86;41.07;101711.44;4971127;27;98701;-67
2023/04/09 01:06:27;;;;;;;;;;;;;;;11.84;41.01;101718.97;4972127;27;97942;-65
2023/04/09 01:08:57;;;;;;;;;;;;;;;11.83;41.17;101720.00;4938368;27;98178;-67
2023/04/09 01:11:41;;;;;;;;;;;;;;;11.80;41.17;101719.44;4970859;27;106471;-68
2023/04/09 01:14:13;;;;;;;;;;;;;;;11.79;41.16;101717.81;4941442;27;98773;-67
2023/04/09 01:16:41;;;;;;;;;;;;;;;11.77;41.10;101714.53;4956937;28;98482;-67
2023/04/09 01:19:26;;;;;;;;;;;;;;;11.77;41.20;101713.69;4953071;27;97960;-65
2023/04/09 01:21:52;;;;;;;;;;;;;;;11.75;41.15;101713.13;4960348;27;98584;-65
2023/04/09 01:24:41;;;;;;;;;;;;;;;11.74;41.30;101714.19;4937878;27;128177;-67
2023/04/09 01:27:07;;;;;;;;;;;;;;;11.73;41.09;101715.25;4968760;27;98198;-65
2023/04/09 01:29:34;;;;;;;;;;;;;;;11.71;41.41;101714.66;4948925;28;121518;-65
2023/04/09 01:32:01;;;;;;;;;;;;;;;11.70;41.12;101708.44;4939174;27;125651;-65
2023/04/09 01:34:27;;;;;;;;;;;;;;;11.69;41.06;101714.09;4968795;27;123949;-68
2023/04/09 01:36:55;;;;;;;;;;;;;;;11.68;41.12;101715.19;4953005;27;126694;-65
2023/04/09 01:39:21;;;;;;;;;;;;;;;11.66;41.15;101714.59;4939718;27;118193;-65
2023/04/09 01:41:48;;;;;;;;;;;;;;;11.65;41.22;101723.75;4970803;27;100717;-65
2023/04/09 01:44:14;;;;;;;;;;;;;;;11.63;41.06;101721.31;4968836;27;98602;-65
2023/04/09 01:46:40;;;;;;;;;;;;;;;11.62;40.94;101727.75;4970283;27;98082;-65
2023/04/09 01:49:06;;;;;;;;;;;;;;;11.61;41.21;101723.44;4951976;27;98362;-65
2023/04/09 01:51:32;;;;;;;;;;;;;;;11.58;41.20;101718.50;4967385;27;127926;-67
2023/04/09 01:53:59;;;;;;;;;;;;;;;11.58;41.19;101723.91;4953738;27;98579;-65
2023/04/09 01:56:25;;;;;;;;;;;;;;;11.57;41.09;101730.38;4970059;27;98255;-67
2023/04/09 01:58:51;;;;;;;;;;;;;;;11.55;41.13;101725.22;4968052;27;113662;-65
2023/04/09 02:01:23;;;;;;;;;;;;;;;11.53;41.11;101724.66;4967663;27;98771;-66
2023/04/09 02:03:55;;;;;;;;;;;;;;;11.51;41.28;101709.75;4968513;27;122035;-66
2023/04/09 02:06:43;;;;;;;;;;;;;;;11.50;41.02;101716.22;4969628;27;98202;-67
2023/04/09 02:09:09;;;;;;;;;;;;;;;11.49;41.13;101711.88;4968603;27;117977;-65
2023/04/09 02:11:37;;;;;;;;;;;;;;;11.48;41.31;101715.66;4952798;28;104145;-65
2023/04/09 02:14:03;;;;;;;;;;;;;;;11.47;41.24;101717.50;4969239;27;98885;-67
2023/04/09 02:16:30;;;;;;;;;;;;;;;11.45;41.27;101718.81;4970876;27;97921;-67
2023/04/09 02:18:56;;;;;;;;;;;;;;;11.43;40.99;101720.94;4969787;27;119873;-67
2023/04/09 02:21:22;;;;;;;;;;;;;;;11.42;41.06;101720.13;4967501;27;98184;-65
2023/04/09 02:23:50;;;;;;;;;;;;;;;11.41;40.75;101717.69;4967976;27;118902;-67
2023/04/09 02:26:16;;;;;;;;;;;;;;;11.40;41.21;101722.25;4968370;27;99063;-67
2023/04/09 02:28:42;;;;;;;;;;;;;;;11.39;41.17;101715.19;4966939;27;103847;-65
2023/04/09 02:31:08;;;;;;;;;;;;;;;11.38;41.19;101724.38;4968514;27;128155;-67
2023/04/09 02:33:34;;;;;;;;;;;;;;;11.37;40.93;101733.53;4967455;27;128009;-67
2023/04/09 02:36:00;;;;;;;;;;;;;;;11.36;41.15;101734.59;4970142;27;113868;-67
2023/04/09 02:38:26;;;;;;;;;;;;;;;11.33;40.94;101718.88;4967688;27;121108;-65
2023/04/09 02:40:52;;;;;;;;;;;;;;;11.32;40.93;101728.06;4973525;27;127242;-65
2023/04/09 02:43:17;;;;;;;;;;;;;;;11.31;40.87;101726.38;4969135;27;127558;-67
2023/04/09 02:45:43;;;;;;;;;;;;;;;11.30;41.13;101727.47;4970626;27;127774;-66
2023/04/09 02:48:09;;;;;;;;;;;;;;;11.28;41.25;101727.72;4970082;27;122473;-67
2023/04/09 02:50:35;;;;;;;;;;;;;;;11.27;41.34;101728.75;4969785;27;98121;-65
2023/04/09 02:53:01;;;;;;;;;;;;;;;11.26;40.86;101729.00;4973117;27;113266;-65
2023/04/09 02:55:27;;;;;;;;;;;;;;;11.26;41.22;101734.41;4968692;27;98387;-66
2023/04/09 02:57:53;;;;;;;;;;;;;;;11.24;41.25;101726.56;4968434;27;98922;-65
2023/04/09 03:00:19;;;;;;;;;;;;;;;11.23;41.18;101727.59;4968116;27;128233;-65
2023/04/09 03:02:45;;;;;;;;;;;;;;;11.21;41.02;101732.44;4951630;28;128617;-65
2023/04/09 03:05:11;;;;;;;;;;;;;;;11.21;41.01;101731.63;4967616;27;127444;-65
2023/04/09 03:07:37;;;;;;;;;;;;;;;11.20;41.23;101728.09;4970047;27;124119;-65
2023/04/09 03:10:03;;;;;;;;;;;;;;;11.19;40.94;101725.63;4969646;27;125400;-67
2023/04/09 03:12:29;;;;;;;;;;;;;;;11.17;40.91;101727.75;4969965;27;98857;-67
2023/04/09 03:14:55;;;;;;;;;;;;;;;11.16;41.31;101718.84;4952135;27;99455;-65
2023/04/09 03:17:23;;;;;;;;;;;;;;;11.14;41.04;101725.53;4969554;27;110007;-65
2023/04/09 03:19:49;;;;;;;;;;;;;;;11.13;41.36;101718.50;4970989;27;98949;-66
2023/04/09 03:22:15;;;;;;;;;;;;;;;11.11;41.14;101717.91;4968239;27;98798;-65
2023/04/09 03:24:41;;;;;;;;;;;;;;;11.10;41.16;101724.38;4952717;28;126364;-65
2023/04/09 03:27:07;;;;;;;;;;;;;;;11.09;41.00;101726.25;4953374;27;104079;-65
2023/04/09 03:29:33;;;;;;;;;;;;;;;11.08;40.92;101727.28;4972177;27;128116;-65
2023/04/09 03:31:59;;;;;;;;;;;;;;;11.06;41.10;101724.84;4974478;27;128062;-67
2023/04/09 03:34:24;;;;;;;;;;;;;;;11.05;41.13;101725.91;4971164;27;98778;-65
2023/04/09 03:36:50;;;;;;;;;;;;;;;11.04;40.87;101727.00;4973442;27;123166;-65
2023/04/09 03:39:16;;;;;;;;;;;;;;;11.04;41.38;101732.38;4975483;27;128237;-67
2023/04/09 03:41:42;;;;;;;;;;;;;;;11.02;40.97;101731.78;4972391;27;123932;-65
2023/04/09 03:44:08;;;;;;;;;;;;;;;11.01;40.98;101742.84;4973816;27;98146;-65
2023/04/09 03:46:34;;;;;;;;;;;;;;;11.01;40.91;101734.75;4972520;27;122661;-65
2023/04/09 03:49:00;;;;;;;;;;;;;;;11.00;40.98;101733.06;4961408;27;98655;-65
2023/04/09 03:51:26;;;;;;;;;;;;;;;10.99;41.21;101734.16;4955744;27;98199;-67
2023/04/09 03:53:52;;;;;;;;;;;;;;;10.97;41.27;101738.97;4954709;27;126153;-67
2023/04/09 03:56:18;;;;;;;;;;;;;;;10.97;41.04;101738.97;4973748;27;123660;-66
2023/04/09 03:58:44;;;;;;;;;;;;;;;10.96;40.79;101740.81;4973251;27;128382;-67
2023/04/09 04:01:10;;;;;;;;;;;;;;;10.95;40.87;101739.19;4969848;27;119958;-65
2023/04/09 04:03:35;;;;;;;;;;;;;;;10.94;40.82;101742.97;4969903;27;126709;-65
2023/04/09 04:06:02;;;;;;;;;;;;;;;10.94;40.99;101750.25;4969534;27;122964;-65
2023/04/09 04:08:28;;;;;;;;;;;;;;;10.93;41.23;101744.03;4959589;28;98300;-65
2023/04/09 04:10:54;;;;;;;;;;;;;;;10.93;40.96;101751.31;4969814;27;118863;-67
2023/04/09 04:13:20;;;;;;;;;;;;;;;10.93;41.20;101754.00;4972184;27;97976;-65
2023/04/09 04:15:46;;;;;;;;;;;;;;;10.93;41.05;101759.41;4972146;27;97938;-67
2023/04/09 04:18:12;;;;;;;;;;;;;;;10.93;41.19;101759.41;4970796;27;107946;-67
2023/04/09 04:20:38;;;;;;;;;;;;;;;10.92;41.15;101755.84;4969585;27;128755;-67
2023/04/09 04:23:04;;;;;;;;;;;;;;;10.93;40.92;101759.41;4973291;27;98451;-65
2023/04/09 04:25:30;;;;;;;;;;;;;;;10.93;40.89;101762.09;4970022;27;122622;-67
2023/04/09 04:27:56;;;;;;;;;;;;;;;10.93;41.15;101757.50;4970674;27;121205;-67
2023/04/09 04:30:22;;;;;;;;;;;;;;;10.94;40.84;101753.75;4970281;27;128282;-65
2023/04/09 04:32:48;;;;;;;;;;;;;;;10.93;41.23;101749.41;4954142;27;98900;-67
2023/04/09 04:35:14;;;;;;;;;;;;;;;10.94;40.99;101748.34;4971463;27;116910;-67
2023/04/09 04:37:40;;;;;;;;;;;;;;;10.96;40.87;101745.41;4970468;27;126969;-65
2023/04/09 04:40:07;;;;;;;;;;;;;;;10.97;41.24;101755.16;4969572;27;127996;-67
2023/04/09 04:42:33;;;;;;;;;;;;;;;10.98;41.08;101746.81;4971883;27;126535;-65
2023/04/09 04:44:59;;;;;;;;;;;;;;;11.00;40.76;101741.16;4971203;27;112780;-67
2023/04/09 04:47:25;;;;;;;;;;;;;;;11.01;41.07;101740.94;4971969;27;98175;-67
2023/04/09 04:49:51;;;;;;;;;;;;;;;11.03;40.96;101744.22;4969285;27;126649;-67
2023/04/09 04:52:17;;;;;;;;;;;;;;;11.07;40.94;101747.25;4972821;27;98353;-65
2023/04/09 04:54:43;;;;;;;;;;;;;;;11.09;40.85;101741.63;4965903;27;110282;-65
2023/04/09 04:57:09;;;;;;;;;;;;;;;11.12;40.62;101738.44;4966717;27;127951;-65
2023/04/09 04:59:38;;;;;;;;;;;;;;;11.15;40.69;101738.78;4970349;27;127167;-66
2023/04/09 05:02:05;;;;;;;;;;;;;;;11.18;40.81;101743.69;4969070;27;103294;-65
2023/04/09 05:04:31;;;;;;;;;;;;;;;11.23;40.59;101737.56;4970206;27;98322;-65
2023/04/09 05:06:57;;;;;;;;;;;;;;;11.26;40.88;101739.81;4966796;27;128966;-65
2023/04/09 05:09:23;;;;;;;;;;;;;;;11.30;40.50;101743.66;4968991;27;126349;-65
2023/04/09 05:11:49;;;;;;;;;;;;;;;11.35;40.91;101740.22;4969158;27;127524;-67
2023/04/09 05:14:15;;;;;;;;;;;;;;;11.39;40.81;101738.69;4966799;27;113292;-65
2023/04/09 05:16:41;;;;;;;;;;;;;;;11.44;40.70;101738.78;4952444;28;98469;-67
2023/04/09 05:19:07;;;;;;;;;;;;;;;11.50;40.46;101740.50;4968965;27;127912;-67
2023/04/09 05:21:32;;;;;;;;;;;;;;;11.54;40.45;101737.06;4967289;27;114838;-65
2023/04/09 05:23:58;;;;;;;;;;;;;;;11.60;40.23;101738.00;4953200;27;122784;-67
2023/04/09 05:26:24;;;;;;;;;;;;;;;11.65;40.64;101740.78;4950929;27;128589;-65
2023/04/09 05:28:51;;;;;;;;;;;;;;;11.71;40.56;101739.81;4970351;27;127475;-65
2023/04/09 05:31:17;;;;;;;;;;;;;;;11.77;40.36;101744.22;4970166;27;98210;-67
2023/04/09 05:33:43;;;;;;;;;;;;;;;11.84;40.54;101749.50;4968376;27;97901;-67
2023/04/09 05:36:16;;;;;;;;;;;;;;;11.90;40.46;101751.22;4968855;27;98745;-67
2023/04/09 05:38:43;;;;;;;;;;;;;;;11.99;40.60;101752.47;4968469;27;98474;-67
2023/04/09 05:41:09;;;;;;;;;;;;;;;12.08;40.35;101754.75;4973288;27;98602;-65
2023/04/09 05:43:35;;;;;;;;;;;;;;;12.15;40.25;101750.00;4972166;27;122968;-65
2023/04/09 05:46:01;;;;;;;;;;;;;;;12.23;40.41;101755.00;4968068;27;98141;-65
2023/04/09 05:48:27;;;;;;;;;;;;;;;12.30;40.29;101750.25;4956345;27;129474;-67
2023/04/09 05:50:53;;;;;;;;;;;;;;;12.39;40.30;101748.75;4953282;27;127549;-65
2023/04/09 05:53:19;;;;;;;;;;;;;;;12.46;40.25;101740.47;4971127;27;120495;-65
2023/04/09 05:55:45;;;;;;;;;;;;;;;12.51;40.41;101738.66;4949956;28;121561;-65
2023/04/09 05:58:11;;;;;;;;;;;;;;;12.59;40.13;101742.81;4970862;27;99258;-65
2023/04/09 06:00:37;;;;;;;;;;;;;;;12.67;40.22;101739.66;4965916;27;99313;-67
2023/04/09 06:03:04;;;;;;;;;;;;;;;12.75;40.10;101733.81;4969652;27;121953;-66
2023/04/09 06:05:30;;;;;;;;;;;;;;;12.83;40.39;101737.16;4972264;27;113557;-65
2023/04/09 06:07:56;;;;;;;;;;;;;;;12.91;40.29;101742.13;4956725;27;98821;-67
2023/04/09 06:10:22;;;;;;;;;;;;;;;13.02;39.98;101741.19;4969941;27;98405;-67
2023/04/09 06:12:48;;;;;;;;;;;;;;;13.13;40.14;101744.84;4969731;27;97892;-65
2023/04/09 06:15:14;;;;;;;;;;;;;;;13.22;39.80;101738.72;4970815;27;128082;-67
2023/04/09 06:17:40;;;;;;;;;;;;;;;13.36;39.79;101744.59;4970515;27;98952;-67
2023/04/09 06:20:07;;;;;;;;;;;;;;;13.48;40.06;101741.72;4969893;27;98167;-65
2023/04/09 06:22:33;;;;;;;;;;;;;;;13.59;39.56;101737.22;4968672;27;106219;-67
2023/04/09 06:24:59;;;;;;;;;;;;;;;13.71;39.58;101733.25;4958565;27;127707;-65
2023/04/09 06:27:25;;;;;;;;;;;;;;;13.84;39.92;101731.22;4970160;27;127976;-66
2023/04/09 06:29:51;;;;;;;;;;;;;;;13.95;39.59;101732.91;4968021;27;98205;-66
2023/04/09 06:32:17;;;;;;;;;;;;;;;14.09;39.83;101736.00;4970311;27;122782;-65
2023/04/09 06:34:43;;;;;;;;;;;;;;;14.21;39.50;101733.91;4964865;27;128141;-67
2023/04/09 06:37:09;;;;;;;;;;;;;;;14.34;39.51;101733.44;4968876;27;106116;-66
2023/04/09 06:39:35;;;;;;;;;;;;;;;14.56;39.68;101743.38;4968258;27;128156;-65
2023/04/09 06:42:02;;;;;;;;;;;;;;;14.89;39.22;101734.84;4965608;27;110827;-67
2023/04/09 06:44:32;;;;;;;;;;;;;;;15.15;38.95;101745.81;4966916;27;99058;-67
2023/04/09 06:46:58;;;;;;;;;;;;;;;15.23;39.10;101745.28;4964529;27;123397;-68
2023/04/09 06:49:24;;;;;;;;;;;;;;;15.25;39.21;101754.00;4963383;27;127639;-66
2023/04/09 06:51:52;;;;;;;;;;;;;;;15.34;39.02;101763.25;4967584;27;99511;-68
2023/04/09 06:54:18;;;;;;;;;;;;;;;15.44;39.30;101771.44;4951916;27;98697;-66
2023/04/09 06:56:44;;;;;;;;;;;;;;;15.55;39.27;101769.53;4966124;27;121673;-67
2023/04/09 06:59:10;;;;;;;;;;;;;;;15.65;39.50;101768.78;4969695;27;128676;-65
2023/04/09 07:01:37;;;;;;;;;;;;;;;15.77;39.21;101774.78;4968711;27;98180;-66
2023/04/09 07:04:03;;;;;;;;;;;;;;;15.85;39.25;101778.84;4969535;27;121163;-65
2023/04/09 07:06:29;;;;;;;;;;;;;;;15.94;39.47;101763.63;4969181;27;115486;-68
2023/04/09 07:08:55;;;;;;;;;;;;;;;16.06;39.38;101775.03;4970115;27;127954;-66
2023/04/09 07:11:21;;;;;;;;;;;;;;;16.17;39.30;101770.41;4947477;27;123949;-66
2023/04/09 07:13:47;;;;;;;;;;;;;;;16.28;39.30;101771.22;4959560;27;98408;-65
2023/04/09 07:16:13;;;;;;;;;;;;;;;16.41;39.15;101770.66;4967060;27;105085;-66
2023/04/09 07:18:39;;;;;;;;;;;;;;;16.52;39.17;101766.00;4965532;27;127740;-65
2023/04/09 07:21:05;;;;;;;;;;;;;;;16.66;39.22;101764.31;4968329;27;97964;-65
2023/04/09 07:23:35;;;;;;;;;;;;;;;16.77;38.98;101771.41;4952579;28;98686;-65
2023/04/09 07:26:04;;;;;;;;;;;;;;;16.89;38.94;101766.47;4969348;27;99004;-65
2023/04/09 07:28:30;;;;;;;;;;;;;;;17.00;38.92;101769.97;4967316;27;99098;-67
2023/04/09 07:30:56;;;;;;;;;;;;;;;17.14;38.89;101767.47;4967700;27;98162;-67
2023/04/09 07:33:22;;;;;;;;;;;;;;;17.31;38.76;101758.91;4950045;27;98522;-65
2023/04/09 07:35:48;;;;;;;;;;;;;;;17.51;38.75;101757.97;4964804;27;127176;-65
2023/04/09 07:38:15;;;;;;;;;;;;;;;17.74;38.65;101762.72;4954716;27;108935;-66
2023/04/09 07:40:41;;;;;;;;;;;;;;;17.97;38.40;101758.47;4953658;28;98036;-64
2023/04/09 07:43:06;;;;;;;;;;;;;;;18.21;38.21;101750.34;4950786;27;128124;-64
2023/04/09 07:45:32;;;;;;;;;;;;;;;18.46;38.30;101752.00;4968195;27;127721;-65
2023/04/09 07:47:58;;;;;;;;;;;;;;;18.74;38.12;101753.06;4954459;27;126372;-65
2023/04/09 07:50:25;;;;;;;;;;;;;;;19.04;37.92;101762.00;4938722;27;121822;-64
2023/04/09 07:52:50;;;;;;;;;;;;;;;19.35;37.63;101756.94;4938350;27;98366;-64
2023/04/09 07:55:17;;;;;;;;;;;;;;;19.71;37.46;101759.16;4967099;27;128244;-64
2023/04/09 07:57:44;;;;;;;;;;;;;;;20.11;37.35;101757.66;4949984;27;98440;-65
2023/04/09 08:00:10;;;;;;;;;;;;;;;20.57;37.31;101752.19;4966941;27;98611;-66
2023/04/09 08:02:36;;;;;;;;;;;;;;;21.07;36.91;101738.56;4965835;27;98560;-65
2023/04/09 08:05:02;;;;;;;;;;;;;;;21.64;36.54;101749.06;4965740;27;128053;-67
2023/04/09 08:07:28;;;;;;;;;;;;;;;22.32;36.39;101755.31;4967272;27;117930;-67
2023/04/09 08:09:54;;;;;;;;;;;;;;;23.07;35.89;101759.00;4966302;27;120228;-67
2023/04/09 08:12:20;;;;;;;;;;;;;;;23.41;36.05;101769.22;4971867;27;98333;-66
2023/04/09 08:14:46;;;;;;;;;;;;;;;23.75;36.00;101757.44;4967654;27;114701;-66
2023/04/09 08:17:12;;;;;;;;;;;;;;;24.80;35.59;101768.97;4966241;27;101483;-66
2023/04/09 08:19:38;;;;;;;;;;;;;;;24.84;35.75;101780.13;4965332;27;122476;-66
2023/04/09 08:22:04;;;;;;;;;;;;;;;25.32;35.69;101774.16;4950408;27;127332;-68
2023/04/09 08:24:30;;;;;;;;;;;;;;;26.46;35.00;101773.91;4966379;27;98709;-68
2023/04/09 08:26:56;;;;;;;;;;;;;;;27.61;34.47;101773.53;4964828;27;98114;-68
2023/04/09 08:29:22;;;;;;;;;;;;;;;28.42;34.03;101774.19;4951878;27;98227;-68
2023/04/09 08:31:48;;;;;;;;;;;;;;;29.43;33.91;101766.19;4966105;27;128129;-67
2023/04/09 08:34:16;;;;;;;;;;;;;;;30.40;33.62;101766.06;4966568;27;99199;-67
2023/04/09 08:36:45;;;;;;;;;;;;;;;31.08;33.63;101767.91;4967146;27;98638;-67
2023/04/09 08:39:11;;;;;;;;;;;;;;;31.84;33.19;101773.25;4966774;27;98324;-68
2023/04/09 08:41:38;;;;;;;;;;;;;;;32.37;33.47;101777.75;4966031;27;128148;-68
2023/04/09 08:44:04;;;;;;;;;;;;;;;32.94;33.68;101764.28;4952526;27;127510;-68
2023/04/09 08:46:30;;;;;;;;;;;;;;;33.12;33.73;101767.94;4967117;27;127737;-69
2023/04/09 08:48:56;;;;;;;;;;;;;;;34.49;32.96;101763.53;4969215;27;124410;-68
2023/04/09 08:51:22;;;;;;;;;;;;;;;33.95;33.58;101774.63;4966061;27;128897;-69
2023/04/09 08:53:52;;;;;;;;;;;;;;;32.89;35.08;101776.56;4966355;27;98458;-69
2023/04/09 08:56:18;;;;;;;;;;;;;;;32.40;35.44;101777.00;4952019;27;98183;-68
2023/04/09 08:58:45;;;;;;;;;;;;;;;31.66;35.81;101761.09;4948689;28;99484;-70
2023/04/09 09:01:23;;;;;;;;;;;;;;;30.80;36.66;101754.41;4967369;27;98766;-68
2023/04/09 09:03:55;;;;;;;;;;;;;;;30.28;36.64;101755.94;4967146;27;98258;-69
2023/04/09 09:06:22;;;;;;;;;;;;;;;32.41;34.47;101764.66;4966448;27;97869;-69
2023/04/09 09:09:10;;;;;;;;;;;;;;;33.42;33.69;101767.69;4951138;27;98458;-69
2023/04/09 09:11:49;;;;;;;;;;;;;;;32.36;34.99;101753.84;4966525;27;98478;-69
2023/04/09 09:14:17;;;;;;;;;;;;;;;31.68;35.92;101753.19;4966718;27;98650;-68
2023/04/09 09:17:02;;;;;;;;;;;;;;;31.00;36.55;101753.09;4968449;27;98588;-68
2023/04/09 09:19:29;;;;;;;;;;;;;;;30.28;36.89;101744.81;4952730;28;98291;-68
2023/04/09 09:22:00;;;;;;;;;;;;;;;29.69;37.23;101744.13;4939296;27;98502;-69
2023/04/09 09:24:26;;;;;;;;;;;;;;;29.15;37.55;101739.44;4966600;27;99509;-68
2023/04/09 09:26:56;;;;;;;;;;;;;;;28.67;37.69;101740.69;4968491;27;98758;-68
2023/04/09 09:29:22;;;;;;;;;;;;;;;28.18;38.04;101744.63;4966482;27;101608;-69
2023/04/09 09:31:54;;;;;;;;;;;;;;;27.78;38.14;101734.47;4935471;28;128884;-68
2023/04/09 09:34:21;;;;;;;;;;;;;;;27.52;38.29;101732.16;4949779;28;109548;-69
2023/04/09 09:36:47;;;;;;;;;;;;;;;27.48;38.08;101725.72;4953760;28;127859;-69
2023/04/09 09:39:14;;;;;;;;;;;;;;;27.92;37.61;101725.75;4965835;27;115551;-68
2023/04/09 09:41:41;;;;;;;;;;;;;;;30.20;35.48;101726.41;4966706;27;97970;-69
2023/04/09 09:44:07;;;;;;;;;;;;;;;32.12;34.16;101730.13;4962627;27;99007;-69
2023/04/09 09:46:41;;;;;;;;;;;;;;;33.87;33.09;101743.06;4964349;27;98463;-68
2023/04/09 09:49:07;;;;;;;;;;;;;;;32.74;34.28;101742.19;4963892;27;99130;-69
2023/04/09 09:51:37;;;;;;;;;;;;;;;32.01;35.38;101732.81;4963530;27;98989;-69
2023/04/09 09:54:03;;;;;;;;;;;;;;;31.75;35.76;101737.34;4964394;27;121571;-69
2023/04/09 09:56:33;;;;;;;;;;;;;;;31.38;36.03;101731.75;4964091;27;122686;-69
2023/04/09 09:59:25;;;;;;;;;;;;;;;31.10;36.29;101728.56;4965184;27;97820;-69
2023/04/09 10:01:58;;;;;;;;;;;;;;;31.54;35.92;101721.19;4964133;27;98959;-69
2023/04/09 10:04:24;;;;;;;;;;;;;;;32.06;35.04;101717.72;4966145;27;105299;-69
2023/04/09 10:06:50;;;;;;;;;;;;;;;32.14;35.14;101722.19;4936623;28;128373;-68
2023/04/09 10:09:16;;;;;;;;;;;;;;;32.14;35.26;101711.03;4949804;27;98313;-69
2023/04/09 10:11:44;;;;;;;;;;;;;;;31.83;35.76;101706.72;4964725;27;98579;-70
2023/04/09 10:14:10;;;;;;;;;;;;;;;31.40;36.36;101704.31;4964308;27;98585;-69
2023/04/09 10:16:36;;;;;;;;;;;;;;;30.90;36.73;101706.44;4931805;28;127784;-68
2023/04/09 10:19:02;;;;;;;;;;;;;;;30.39;37.09;101698.53;4967578;27;122523;-69
2023/04/09 10:21:52;;;;;;;;;;;;;;;30.15;37.19;101690.56;4962373;27;99173;-68
2023/04/09 10:24:18;;;;;;;;;;;;;;;30.05;37.09;101690.00;4952781;27;99173;-68
2023/04/09 10:26:45;;;;;;;;;;;;;;;30.13;36.90;101696.47;4928175;28;118760;-69
2023/04/09 10:29:14;;;;;;;;;;;;;;;30.17;36.75;101696.56;4969956;27;97950;-68
2023/04/09 10:31:53;;;;;;;;;;;;;;;29.93;37.08;101698.53;4963130;27;98638;-69
2023/04/09 10:34:23;;;;;;;;;;;;;;;30.17;36.49;101688.22;4953652;28;99361;-68
2023/04/09 10:36:53;;;;;;;;;;;;;;;30.01;37.09;101685.56;4964586;27;98101;-68
2023/04/09 10:39:19;;;;;;;;;;;;;;;29.64;37.32;101691.66;4970104;27;98421;-69
2023/04/09 10:41:47;;;;;;;;;;;;;;;29.29;37.60;101681.44;4964743;27;99215;-69
2023/04/09 10:44:20;;;;;;;;;;;;;;;28.99;37.58;101680.41;4968186;27;98459;-69
2023/04/09 10:46:46;;;;;;;;;;;;;;;28.88;37.58;101680.16;4965261;27;98422;-69
2023/04/09 10:49:16;;;;;;;;;;;;;;;28.84;37.70;101680.06;4966146;27;102704;-68
2023/04/09 10:52:09;;;;;;;;;;;;;;;28.88;37.18;101680.16;4946535;28;99026;-68
2023/04/09 10:54:38;;;;;;;;;;;;;;;29.08;37.37;101679.03;4967576;27;102727;-68
2023/04/09 10:57:10;;;;;;;;;;;;;;;29.29;36.79;101675.09;4965305;27;98080;-68
2023/04/09 10:59:36;;;;;;;;;;;;;;;29.59;36.81;101670.56;4966873;27;97993;-69
2023/04/09 11:02:05;;;;;;;;;;;;;;;29.63;36.70;101676.16;4966748;27;98491;-68
2023/04/09 11:04:54;;;;;;;;;;;;;;;30.28;36.24;101669.75;4966515;27;127209;-68
2023/04/09 11:07:21;;;;;;;;;;;;;;;30.44;36.20;101667.59;4944062;28;98314;-68
2023/04/09 11:09:47;;;;;;;;;;;;;;;30.12;36.72;101674.63;4949038;28;119732;-68
2023/04/09 11:12:13;;;;;;;;;;;;;;;29.97;36.65;101659.69;4962346;27;128760;-68
2023/04/09 11:14:39;;;;;;;;;;;;;;;30.19;36.52;101661.69;4964673;27;117465;-68
2023/04/09 11:17:05;;;;;;;;;;;;;;;30.10;36.57;101661.09;4966186;27;99305;-67
2023/04/09 11:19:33;;;;;;;;;;;;;;;30.56;36.19;101669.38;4965023;27;99134;-67
2023/04/09 11:21:59;;;;;;;;;;;;;;;30.64;36.07;101667.50;4945393;27;128151;-67
2023/04/09 11:24:25;;;;;;;;;;;;;;;31.02;35.91;101666.44;4949572;27;127434;-67
2023/04/09 11:26:51;;;;;;;;;;;;;;;31.11;35.72;101666.16;4966281;27;98267;-68
2023/04/09 11:29:17;;;;;;;;;;;;;;;31.07;36.17;101668.88;4967414;27;122422;-67
2023/04/09 11:31:43;;;;;;;;;;;;;;;31.21;36.05;101662.69;4965290;27;128825;-67
2023/04/09 11:34:12;;;;;;;;;;;;;;;31.22;35.96;101662.31;4964185;27;127901;-67
2023/04/09 11:36:39;;;;;;;;;;;;;;;31.88;35.24;101659.84;4967388;27;128215;-67
2023/04/09 11:39:05;;;;;;;;;;;;;;;31.95;35.46;101665.50;4965059;27;117743;-67
2023/04/09 11:41:35;;;;;;;;;;;;;;;32.13;35.44;101662.03;4947754;27;98877;-67
2023/04/09 11:44:04;;;;;;;;;;;;;;;32.35;35.52;101658.22;4965327;27;122923;-67
2023/04/09 11:46:31;;;;;;;;;;;;;;;32.18;35.67;101656.88;4950035;27;98244;-67
2023/04/09 11:48:57;;;;;;;;;;;;;;;31.94;35.94;101651.91;4972809;27;98344;-67
2023/04/09 11:51:23;;;;;;;;;;;;;;;31.64;36.04;101654.81;4950435;27;120368;-67
2023/04/09 11:53:52;;;;;;;;;;;;;;;31.23;36.58;101649.19;4933343;27;128154;-68
2023/04/09 11:56:18;;;;;;;;;;;;;;;30.85;37.02;101645.56;4970248;27;98671;-67
2023/04/09 11:58:47;;;;;;;;;;;;;;;30.56;37.14;101639.56;4940095;28;121762;-67
2023/04/09 12:01:14;;;;;;;;;;;;;;;30.29;37.52;101643.53;4967617;27;98702;-67
2023/04/09 12:03:40;;;;;;;;;;;;;;;29.97;37.44;101641.03;4969156;27;98833;-68
2023/04/09 12:06:06;;;;;;;;;;;;;;;29.67;37.85;101646.50;4967743;27;127236;-68
2023/04/09 12:08:36;;;;;;;;;;;;;;;29.54;37.86;101654.16;4966884;27;108466;-68
2023/04/09 12:11:08;;;;;;;;;;;;;;;29.52;37.64;101644.59;4968011;27;98218;-67
2023/04/09 12:13:35;;;;;;;;;;;;;;;29.45;37.71;101639.72;4967676;27;100007;-67
2023/04/09 12:16:02;;;;;;;;;;;;;;;29.09;37.90;101636.25;4967947;27;98244;-68
2023/04/09 12:18:28;;;;;;;;;;;;;;;28.85;37.96;101633.72;4966452;27;99346;-68
2023/04/09 12:20:54;;;;;;;;;;;;;;;28.65;37.94;101643.19;4969494;27;98768;-67
2023/04/09 12:23:20;;;;;;;;;;;;;;;28.51;38.21;101647.25;4962948;27;127580;-67
2023/04/09 12:25:46;;;;;;;;;;;;;;;28.40;38.26;101639.84;4969813;27;99276;-67
2023/04/09 12:28:14;;;;;;;;;;;;;;;28.28;38.26;101646.28;4967353;27;98435;-67
2023/04/09 12:30:40;;;;;;;;;;;;;;;28.40;37.86;101639.84;4967149;27;98752;-68